2 км

Карта отелей и гостиниц, располагающихся рядом с аэропортом 2 км :

2 км Томская область 60° 44' 32.1" N, 77° 32' 0.8412" E
2 км Томская область 60° 44' 32.1" N, 77° 32' 0.8412" E
Код аэродрома ИКАО: 
HB6B
Код аэродрома RU: 
ХБ6Б
Координаты: 
N60.74225° E077.53357°
Превышение над уровнем моря : 
44
Основная полоса: 
Курс магнитный: 
Длина основной ВПП: 
30
Ширина основной ВПП: 
30
Покрытие основной ВПП: 
Твёрдое
Освещение ВПП: 
Нет
Тип: 
Вертодром
Класс аэродрома: 
Принадлежность: 
ГА
Статус: 
Действующий
Сайт: 
E-mail аэродрома: 
Страна: 
Россия
Регион: 
Томская область
Город: 
Дополнительная информация: 
Маркирована. Оборудована ветроуказателем.

Найти трансфер

С помощью этой формы Вы можете найти трансфер из аэропорта 2 км в город, аэропорт или вокзал:

Карта места

Javascript is required to view this map.

Погода в аэропортах:

Авиационная погода в Гостомеле

Регион: 
Погода METAR: 
UKKM 270730Z AUTO 10004MPS 070V130 9999 -SHUP BKN070CB 16/11 Q1006
Время наблюдения: 
2020-09-27T07:30:00Z
Температура C: 
16.0
Точка росы: 
11.0
Направление ветра: 
100
Скорость ветра (узлы): 
8
Метеорологическая видимость: 
6.21
Явления погоды: 
SH UP
Условия полета: 
VFR
Аэропорт подробнее: 

Авиационная погода в Ивано-Франковске

Регион: 
Погода METAR: 
UKLI 270730Z VRB01MPS 7000 -SHRA BKN020CB BKN030 10/10 Q1003 R10/290565 NOSIG
Время наблюдения: 
2020-09-27T07:30:00Z
Температура C: 
10.0
Точка росы: 
10.0
Направление ветра: 
0
Скорость ветра (узлы): 
2
Метеорологическая видимость: 
4.35
Явления погоды: 
-SHRA
Условия полета: 
MVFR
Аэропорт подробнее: 

Авиационная погода в Каяани

Регион: 
Погода METAR: 
EFKI 270720Z AUTO 09007KT 050V110 3900 BR OVC001 10/10 Q1022
Время наблюдения: 
2020-09-27T07:20:00Z
Температура C: 
10.0
Точка росы: 
10.0
Направление ветра: 
90
Скорость ветра (узлы): 
7
Метеорологическая видимость: 
2.42
Явления погоды: 
BR
Условия полета: 
LIFR

Авиационная погода в Куусамо

Регион: 
Погода METAR: 
EFKS 270720Z 08008KT 040V120 9000 RA BKN006 OVC027 06/05 Q1025
Время наблюдения: 
2020-09-27T07:20:00Z
Температура C: 
6.0
Точка росы: 
5.0
Направление ветра: 
80
Скорость ветра (узлы): 
8
Метеорологическая видимость: 
5.59
Явления погоды: 
RA
Условия полета: 
IFR